Hamersville, Ohio
Current Conditions -  °F | °C
As of 7:53 PM on Monday 26 Jan 2015 (Local Time) from KLUK Reporting Station
Clear Clear  
Wind Chill: 16°   Ceiling: Unl
Heat Index: 22°   Visibility: 10mi
Dew Point: 15°   Wind: 5mph
Humidity: 75%   Direction: 60°ENE
Pressure: 29.97"   Gusts: NA
Location:  38.92°N, 83.98°W
Report Text: KLUK 270053Z 06004KT 10SM CLR M06/M09 A2997 RMK AO2 SLP157 T10561094
Loading
Personal Weather Stations






























Interactive Weather Map New forecast layout! Learn more

10-Day Weather Forecast

Advertisements
Track Severe Weather on mobile